»·PEaware :: N5491J KSMO-KSAN

N5491J :: KSMO-KSAN

FLIGHT INFORMATION

Flight Status: Arrived
Operator: Privately registered:
United States
More flights under this callsign
Pilot: David L. (16466)
Aircraft: CESSNA 172 SKYHAWK
(C172)
More flights by this aircraft type
Origin: KSMO Santa Monica Mun
United States
Destination: KSAN San Diego Intl-Lindbergh
United States
More flights between these airports :: More routes between these airports
Route: SMO LAX V23 SLI V64 V363 DANAH V23 MZB
File this flight plan on PilotEdge
Remarks:
Altitude:
(Current/Filed)
5,000ft
Speed:
(Current/Filed)
120kts
Departed: 12-May-18 07:16 AM
Arrived: 12-May-18 08:29 AM
Distance/Time
Traveled:
100nm/1:13
Distance/Time
To Go:
Arrived

Flight Plot

Page will automatically refresh every two minutes.

Flight plan parsing failed; only flown route is shown


Map Options




Map Legend


Flown Route
Filed Route
Departure Airport
Arrival Airport
Navaid (VOR, NDB)
Fix

Horizontal Profiles

Position Reports

Time Latitude Longitude Heading Altitude Ground
Speed
12-May-18 06:47 34.016934 -118.448016 134 178ft 0kts
12-May-18 06:48 34.016934 -118.448016 134 178ft 0kts
12-May-18 06:49 34.016934 -118.448016 134 178ft 0kts
12-May-18 06:50 34.016934 -118.448016 134 178ft 0kts
12-May-18 06:51 34.016934 -118.448016 134 178ft 0kts
12-May-18 06:52 34.016934 -118.448016 134 178ft 0kts
12-May-18 06:53 34.016934 -118.448016 134 178ft 0kts
12-May-18 06:54 34.016934 -118.448016 134 178ft 0kts
12-May-18 06:55 34.016934 -118.448016 134 178ft 0kts
12-May-18 06:56 34.016934 -118.448016 134 178ft 0kts
12-May-18 06:57 34.016933 -118.448015 134 178ft 0kts
12-May-18 06:58 34.016933 -118.448015 134 178ft 0kts
12-May-18 06:59 34.016932 -118.448014 134 178ft 0kts
12-May-18 07:00 34.016932 -118.448014 134 178ft 0kts
12-May-18 07:01 34.016931 -118.448013 134 178ft 0kts
12-May-18 07:02 34.016931 -118.448012 134 178ft 0kts
12-May-18 07:03 34.016930 -118.448012 134 178ft 0kts
12-May-18 07:04 34.016930 -118.448011 134 178ft 0kts
12-May-18 07:05 34.016929 -118.448011 134 178ft 0kts
12-May-18 07:06 34.016929 -118.448010 134 178ft 0kts
12-May-18 07:07 34.016928 -118.448009 134 178ft 0kts
12-May-18 07:08 34.016928 -118.448009 134 178ft 0kts
12-May-18 07:09 34.016927 -118.448008 134 178ft 0kts
12-May-18 07:10 34.016927 -118.448008 134 178ft 0kts
12-May-18 07:11 34.016926 -118.448007 134 178ft 0kts
12-May-18 07:12 34.017191 -118.447992 337 178ft 7kts
12-May-18 07:13 34.019637 -118.445561 352 178ft 6kts
12-May-18 07:14 34.019904 -118.445624 347 178ft 0kts
12-May-18 07:15 34.020249 -118.446053 225 178ft 5kts
12-May-18 07:16 34.007416 -118.461110 223 579ft 79kts
12-May-18 07:17 33.990596 -118.480746 226 1355ft 85kts
12-May-18 07:18 33.985269 -118.508620 264 2137ft 86kts
12-May-18 07:19 33.982713 -118.537757 261 2854ft 87kts
12-May-18 07:20 33.989673 -118.557925 53 3491ft 83kts
12-May-18 07:21 33.984144 -118.536945 141 4173ft 89kts
12-May-18 07:22 33.966371 -118.524277 141 4687ft 89kts
12-May-18 07:23 33.943295 -118.508154 141 5055ft 111kts
12-May-18 07:24 33.917912 -118.481223 131 5003ft 127kts
12-May-18 07:25 33.896655 -118.457213 131 5000ft 129kts
12-May-18 07:26 33.871408 -118.428504 131 5000ft 129kts
12-May-18 07:27 33.849413 -118.403490 131 5000ft 129kts
12-May-18 07:28 33.823282 -118.373752 131 4999ft 129kts
12-May-18 07:29 33.809087 -118.328369 103 5000ft 125kts
12-May-18 07:30 33.800726 -118.295159 101 4999ft 124kts
12-May-18 07:31 33.791835 -118.255035 99 5000ft 124kts
12-May-18 07:32 33.783805 -118.214764 99 5000ft 124kts
12-May-18 07:33 33.775411 -118.174392 100 5000ft 124kts
12-May-18 07:34 33.766308 -118.134395 101 5000ft 124kts
12-May-18 07:35 33.756984 -118.094255 101 5000ft 124kts
12-May-18 07:36 33.747998 -118.054151 100 4999ft 124kts
12-May-18 07:37 33.739188 -118.013990 100 5000ft 124kts
12-May-18 07:38 33.730227 -117.973699 100 5000ft 124kts
12-May-18 07:39 33.721238 -117.933612 100 5000ft 124kts
12-May-18 07:40 33.707994 -117.895970 139 5027ft 128kts
12-May-18 07:41 33.677330 -117.872174 143 4999ft 132kts
12-May-18 07:42 33.646440 -117.848551 139 4999ft 131kts
12-May-18 07:43 33.615704 -117.824754 140 5000ft 131kts
12-May-18 07:44 33.587080 -117.797754 132 5000ft 130kts
12-May-18 07:45 33.561777 -117.767154 128 4999ft 129kts
12-May-18 07:46 33.536981 -117.735859 130 5000ft 129kts
12-May-18 07:47 33.510549 -117.706462 134 5000ft 130kts
12-May-18 07:48 33.482782 -117.678385 135 5000ft 130kts
12-May-18 07:49 33.455476 -117.649997 133 5000ft 130kts
12-May-18 07:50 33.428880 -117.620736 132 5000ft 129kts
12-May-18 07:51 33.402207 -117.591453 132 5000ft 130kts
12-May-18 07:52 33.375283 -117.562584 133 5000ft 130kts
12-May-18 07:53 33.348393 -117.533719 133 5000ft 130kts
12-May-18 07:54 33.321479 -117.504677 133 5000ft 130kts
12-May-18 07:55 33.294625 -117.475779 133 5000ft 130kts
12-May-18 07:56 33.267674 -117.446788 133 5000ft 130kts
12-May-18 07:57 33.239455 -117.419918 154 5010ft 132kts
12-May-18 07:58 33.204896 -117.403693 151 5000ft 133kts
12-May-18 07:59 33.170226 -117.387070 156 5000ft 134kts
12-May-18 08:00 33.135077 -117.371918 156 5000ft 134kts
12-May-18 08:01 33.099946 -117.356718 156 5000ft 134kts
12-May-18 08:02 33.069660 -117.334366 121 5011ft 128kts
12-May-18 08:03 33.048634 -117.299869 121 4999ft 128kts
12-May-18 08:04 33.027679 -117.265380 121 5000ft 128kts
12-May-18 08:05 33.006639 -117.230724 121 4999ft 128kts
12-May-18 08:06 32.985718 -117.196088 121 4999ft 129kts
12-May-18 08:07 32.965028 -117.160951 121 5000ft 130kts
12-May-18 08:08 32.944244 -117.125396 121 4999ft 130kts
12-May-18 08:09 32.923558 -117.089948 121 5000ft 130kts
12-May-18 08:10 32.902885 -117.054461 121 5000ft 130kts
12-May-18 08:11 32.882159 -117.018830 121 5000ft 130kts
12-May-18 08:12 32.861437 -116.983453 121 4999ft 130kts
12-May-18 08:13 32.840556 -116.948288 121 5012ft 127kts
12-May-18 08:14 32.825930 -116.922920 121 4997ft 126kts
12-May-18 08:15 32.805729 -116.888459 121 4999ft 126kts
12-May-18 08:16 32.785172 -116.853970 121 5000ft 128kts
12-May-18 08:17 32.757564 -116.839716 202 5006ft 123kts
12-May-18 08:18 32.727405 -116.856965 204 4994ft 117kts
12-May-18 08:19 32.698238 -116.873901 204 4999ft 116kts
12-May-18 08:20 32.681244 -116.904279 252 4687ft 115kts
12-May-18 08:21 32.674388 -116.941536 278 3990ft 113kts
12-May-18 08:22 32.682482 -116.977063 288 3613ft 107kts
12-May-18 08:23 32.690658 -117.012153 289 2855ft 110kts
12-May-18 08:24 32.699809 -117.047198 287 2615ft 108kts
12-May-18 08:25 32.707650 -117.081573 285 2026ft 105kts
12-May-18 08:26 32.714977 -117.112577 286 1394ft 93kts
12-May-18 08:27 32.721955 -117.142289 286 724ft 92kts
12-May-18 08:28 32.728546 -117.169110 285 288ft 80kts
12-May-18 08:29 32.732686 -117.186099 285 18ft 7kts
12-May-18 08:30 32.732351 -117.187287 194 18ft 0kts
12-May-18 08:31 32.731888 -117.186539 105 18ft 12kts
12-May-18 08:32 32.732779 -117.184084 14 18ft 7kts
12-May-18 08:33 32.734061 -117.185806 15 18ft 8kts

Navigation Log

Ident Type
Flight plan parsing failed, navigation log unavailable